NCAR-RAP Real-Time Weather Data

Output produced by METARs form (17 September 2019  17:07 UTC)
found at http://weather.rap.ucar.edu/surface/
 
KMHE 171653Z AUTO 18016G30KT 10SM CLR 30/19 A2977 RMK AO2 PK WND 19032/1635 SLP070 T03000194
KMHE 171553Z AUTO 18014G29KT 10SM CLR 28/19 A2978 RMK AO2 PK WND 17032/1528 SLP072 T02830194
KMHE 171453Z AUTO 18016G25KT 10SM CLR 27/19 A2978 RMK AO2 PK WND 17028/1427 SLP072 T02720189 51003
KMHE 171353Z AUTO 18012G24KT 10SM CLR 26/19 A2978 RMK AO2 SLP073 T02610189
KMHE 171253Z AUTO 17015G24KT 10SM CLR 25/18 A2978 RMK AO2 PK WND 17027/1212 SLP074 T02500183
KMHE 171153Z AUTO 17016G25KT 10SM CLR 24/18 A2977 RMK AO2 SLP070 T02440183 10256 20244 53001
KMHE 171053Z AUTO 17015KT 10SM SCT120 25/18 A2977 RMK AO2 SLP069 T02500183
KMHE 170953Z AUTO 17012KT 10SM FEW120 24/18 A2977 RMK AO2 SLP068 T02440183
KMHE 170853Z AUTO 18015G22KT 10SM CLR 25/18 A2977 RMK AO2 PK WND 17028/0802 SLP068 T02500183 55007
KMHE 170753Z AUTO 17017G26KT 10SM FEW120 26/19 A2977 RMK AO2 PK WND 18030/0717 SLP068 T02560189
KMHE 170653Z AUTO 16015G23KT 10SM FEW120 25/19 A2977 RMK AO2 SLP070 T02500194
KMHE 170553Z AUTO 15013KT 10SM SCT120 25/20 A2979 RMK AO2 PK WND 14028/0459 LTG DSNT E RAE0456 SLP076 P0000 60000 T02500200 10272 20250 403110206 58012
KMHE 170453Z AUTO 15018G31KT 10SM -RA BKN110 26/20 A2980 RMK AO2 PK WND 16031/0431 RAB38 SLP080 P0000 T02560200
KMHE 170353Z AUTO 15015G27KT 10SM FEW120 26/20 A2981 RMK AO2 PK WND 16027/0344 LTG DSNT SE SLP085 T02610200
KMHE 170253Z AUTO 15014G25KT 10SM BKN120 27/20 A2982 RMK AO2 SLP089 T02670200 55000
KMHE 170053Z AUTO 14013KT 10SM CLR 27/21 A2982 RMK AO2 SLP090 T02670206
KMHE 162353Z AUTO 10SM CLR 27/20 A2982 RMK AO2 SLP091 T02720200 10311 20272 56006
KMHE 162253Z AUTO 15013KT 10SM CLR 28/19 A2983 RMK AO2 SLP093 T02830194
KMHE 162153Z AUTO 15012KT 10SM CLR 29/20 A2984 RMK AO2 SLP094 T02940200
KMHE 162053Z AUTO 15013G21KT 10SM CLR 29/21 A2984 RMK AO2 SLP096 T02940206 56009